| Date | Time | Temp. (oF) | Dew Point (oF) | Rel. Hum. (%) | Press. (in.) | Wind Dir. | Wind Speed (mph) | Hourly Rainfall (in.) |
|
|---|---|---|---|---|---|---|---|---|---|
| 1 | 02/05 | 00:00 | 32 | 23 | 70 | 30.30 | W | 2 | 0.00 |
| 2 | 02/04 | 23:00 | 36 | 23 | 60 | 30.29 | NW | 1 | 0.00 |
| 3 | 02/04 | 22:00 | 38 | 23 | 56 | 30.29 | NW | 7 | 0.00 |
| 4 | 02/04 | 21:00 | 37 | 23 | 59 | 30.29 | NW | 6 | 0.00 |
| 5 | 02/04 | 320:56 | 0 | -6 | 72 | 37.00 | 20:57 | 2 | 4.99 |
| 6 | 02/04 | 20:55 | 37 | 24 | 60 | 30.29 | NNW | 7 | 0.00 |
| 7 | miss | miss | miss | miss | miss | miss | miss | miss | |
| 8 | 02/04 | 20:53 | 37 | 24 | 60 | 30.29 | WNW | 5 | 0.00 |
| 9 | miss | miss | miss | miss | miss | miss | miss | miss | |
| 10 | 02/04 | 20:51 | 37 | 24 | 60 | 30.29 | NW | 4 | 0.00 |
| 11 | miss | miss | miss | miss | miss | miss | miss | miss | |
| 12 | 02/04 | 20:49 | 37 | 24 | 60 | 30.29 | NW | 4 | 0.00 |
| 13 | miss | miss | miss | miss | miss | miss | miss | miss | |
| 14 | 02/04 | 20:47 | 37 | 24 | 60 | 30.29 | NW | 3 | 0.00 |
| 15 | miss | miss | miss | miss | miss | miss | miss | miss | |
| 16 | 02/04 | 20:45 | 37 | 24 | 60 | 30.29 | WNW | 3 | 0.00 |
| 17 | miss | miss | miss | miss | miss | miss | miss | miss | |
| 18 | 02/04 | 20:43 | 37 | 24 | 60 | 30.29 | WNW | 5 | 0.00 |
| 19 | miss | miss | miss | miss | miss | miss | miss | miss | |
| 20 | 02/04 | 20:41 | 37 | 23 | 59 | 30.29 | NW | 3 | 0.00 |
| 21 | miss | miss | miss | miss | miss | miss | miss | miss | |
| 22 | 02/04 | 20:39 | 38 | 24 | 59 | 30.29 | NW | 3 | 0.00 |
| 23 | miss | miss | miss | miss | miss | miss | miss | miss | |
| 24 | 02/04 | 20:37 | 38 | 24 | 59 | 30.29 | NW | 3 | 0.00 |
| 25 | miss | miss | miss | miss | miss | miss | miss | miss | |
| 26 | 02/04 | 20:36 | 38 | 24 | 59 | 30.28 | WNW | 5 | 0.00 |
| 27 | miss | miss | miss | miss | miss | miss | miss | miss | |
| 28 | 02/04 | 20:36 | 38 | 24 | 59 | 30.28 | WNW | 5 | 0.00 |
| 29 | 02/04 | 20:00 | 39 | 25 | 58 | 30.28 | NW | 5 | 0.00 |
| 30 | 02/04 | 19:00 | 39 | 26 | 60 | 30.28 | WNW | 4 | 0.00 |
| 31 | 02/04 | 18:00 | 41 | 25 | 54 | 30.25 | NW | 3 | 0.00 |
| 32 | 02/04 | 17:00 | 44 | 24 | 47 | 30.23 | NW | 6 | 0.00 |
| 33 | 02/04 | 16:00 | 45 | 25 | 47 | 30.22 | NW | 6 | 0.00 |
| 34 | 02/04 | 15:00 | 45 | 25 | 46 | 30.20 | NNW | 11 | 0.00 |
| 35 | 02/04 | 14:00 | 42 | 23 | 47 | 30.21 | WNW | 7 | 0.00 |
| 36 | 02/04 | 13:00 | 41 | 25 | 54 | 30.23 | NNW | 16 | 0.00 |
| 37 | 02/04 | 12:00 | 39 | 27 | 64 | 30.25 | NW | 11 | 0.00 |
| 38 | 02/04 | 11:00 | 36 | 28 | 73 | 30.28 | NNW | 7 | 0.00 |
| 39 | 02/04 | 10:00 | 34 | 31 | 90 | 30.28 | NW | 6 | 0.00 |
| 40 | 02/04 | 09:00 | 32 | 32 | 100 | 30.27 | NW | 5 | 0.00 |
| 41 | 02/04 | 08:00 | 29 | 28 | 100 | 30.26 | WNW | 6 | 0.00 |
| 42 | 02/04 | 07:00 | 29 | 28 | 100 | 30.25 | W | 0 | 0.00 |
| 43 | 02/04 | 06:00 | 29 | 28 | 100 | 30.22 | W | 1 | 0.00 |
| 44 | 02/04 | 05:00 | 29 | 28 | 100 | 30.23 | WNW | 0 | 0.00 |
| 45 | 02/04 | 04:00 | 29 | 28 | 100 | 30.23 | NW | 2 | 0.00 |
| 46 | 02/04 | 03:00 | 30 | 30 | 100 | 30.22 | WNW | 4 | 0.01 |
| 47 | 02/04 | 02:00 | 30 | 30 | 100 | 30.22 | NNW | 4 | 0.00 |
| 48 | 02/04 | 01:00 | 29 | 28 | 100 | 30.21 | WNW | 5 | 0.00 |
| 49 | 02/04 | 00:00 | 29 | 28 | 100 | 30.22 | WNW | 3 | -0.01 |
| 50 | 02/03 | 23:00 | 29 | 28 | 100 | 30.23 | W | 1 | 0.00 |
| 51 | 02/03 | 22:00 | 29 | 28 | 100 | 30.24 | WNW | 2 | 0.00 |
| 52 | 02/03 | 21:00 | 29 | 28 | 99 | 30.25 | WNW | 2 | 0.00 |
| 53 | 02/03 | 20:00 | 29 | 28 | 96 | 30.24 | N | 3 | 0.01 |
| 54 | 02/03 | 19:00 | 31 | 28 | 91 | 30.25 | NNW | 1 | 0.01 |
| 55 | 02/03 | 18:00 | 33 | 25 | 74 | 30.24 | SW | 4 | 0.00 |
| 56 | 02/03 | 17:00 | 34 | 26 | 73 | 30.21 | N | 4 | 0.00 |
| 57 | 02/03 | 16:00 | 33 | 25 | 75 | 30.22 | NW | 0 | 0.00 |
| 58 | 02/03 | 15:00 | 34 | 23 | 66 | 30.24 | S | 2 | 0.00 |
| 59 | 02/03 | 14:00 | 33 | 23 | 69 | 30.26 | S | 0 | 0.00 |
| 60 | 02/03 | 13:00 | 34 | 23 | 65 | 30.26 | NW | 2 | 0.00 |
| 61 | 02/03 | 12:00 | 35 | 24 | 65 | 30.30 | NE | 2 | 0.00 |
| 62 | 02/03 | 11:00 | 32 | 23 | 70 | 30.33 | E | 3 | 0.00 |
| 63 | 02/03 | 10:00 | 28 | 24 | 85 | 30.33 | ENE | 5 | 0.00 |
| 64 | 02/03 | 09:00 | 24 | 22 | 92 | 30.36 | SW | 1 | 0.00 |
| 65 | 02/03 | 08:00 | 22 | 20 | 92 | 30.37 | SSW | 1 | 0.00 |
| 66 | 02/03 | 07:00 | 21 | 18 | 91 | 30.37 | SW | 0 | 0.00 |
| 67 | 02/03 | 06:00 | 22 | 19 | 90 | 30.37 | SW | 2 | 0.00 |
| 68 | 02/03 | 05:00 | 22 | 19 | 89 | 30.37 | E | 0 | 0.00 |
| 69 | 02/03 | 04:00 | 22 | 19 | 90 | 30.39 | S | 2 | 0.00 |
| 70 | 02/03 | 03:00 | 21 | 18 | 90 | 30.37 | E | 3 | 0.00 |
| 71 | 02/03 | 02:00 | 22 | 18 | 88 | 30.40 | W | 1 | 0.00 |
| 72 | 02/03 | 01:00 | 22 | 18 | 86 | 30.42 | NW | 0 | 0.00 |
| 73 | 02/03 | 00:00 | 22 | 18 | 86 | 30.44 | NE | 0 | -0.02 |